createdAt,value
2022-12-19T00:01:37.098Z,95476.00
2022-12-19T00:04:08.150Z,95478.41
2022-12-19T00:06:36.579Z,95485.06
2022-12-19T00:09:03.365Z,95480.63
2022-12-19T00:11:30.684Z,95481.66
2022-12-19T00:13:57.879Z,95478.25
2022-12-19T00:16:26.764Z,95489.41
2022-12-19T00:18:55.655Z,95480.28
2022-12-19T00:21:25.749Z,95484.09
2022-12-19T00:23:53.004Z,95471.06
2022-12-19T00:26:23.323Z,95475.13
2022-12-19T00:28:52.368Z,95462.63
2022-12-19T00:31:20.609Z,95475.56
2022-12-19T00:33:47.718Z,95474.25
2022-12-19T00:36:19.249Z,95474.13
2022-12-19T00:38:51.471Z,95479.06
2022-12-19T00:41:26.616Z,95468.09
2022-12-19T00:43:55.381Z,95458.66
2022-12-19T00:46:22.178Z,95465.63
2022-12-19T00:48:49.364Z,95460.91
2022-12-19T00:51:18.252Z,95467.75
2022-12-19T00:53:46.355Z,95461.34
2022-12-19T00:56:23.380Z,95459.28
2022-12-19T00:58:50.064Z,95461.81
2022-12-19T01:01:21.846Z,95456.31
2022-12-19T01:04:26.019Z,95452.75
2022-12-19T01:06:35.316Z,95444.09
2022-12-19T01:09:02.464Z,95455.63
2022-12-19T01:11:47.626Z,95448.81
2022-12-19T01:14:20.721Z,95443.13
2022-12-19T01:16:49.205Z,95434.94
2022-12-19T01:19:15.950Z,95439.06
2022-12-19T01:21:42.558Z,95438.72
2022-12-19T01:24:09.872Z,95444.31
2022-12-19T01:26:36.474Z,95435.56
2022-12-19T01:29:03.252Z,95427.97
2022-12-19T01:31:29.902Z,95437.00
2022-12-19T01:33:56.662Z,95431.38
2022-12-19T01:36:23.298Z,95428.63
2022-12-19T01:38:49.926Z,95433.00
2022-12-19T01:41:16.560Z,95418.06
2022-12-19T01:44:04.508Z,95406.03
2022-12-19T01:46:34.814Z,95402.34
2022-12-19T01:49:02.394Z,95411.81
2022-12-19T01:51:35.838Z,95401.16
2022-12-19T01:54:05.871Z,95404.72
2022-12-19T01:56:35.990Z,95397.81
2022-12-19T01:59:07.153Z,95398.16
2022-12-19T02:01:34.927Z,95393.34
2022-12-19T02:04:02.681Z,95391.97
2022-12-19T02:06:30.913Z,95390.97
2022-12-19T02:08:57.678Z,95386.84
2022-12-19T02:11:24.309Z,95395.88
2022-12-19T02:13:51.252Z,95398.81
2022-12-19T02:16:25.974Z,95393.50
2022-12-19T02:19:04.896Z,95392.53
2022-12-19T02:22:01.764Z,95387.09
2022-12-19T02:24:44.563Z,95379.00
2022-12-19T02:27:40.346Z,95384.69
2022-12-19T02:30:16.331Z,95387.91
2022-12-19T02:32:48.125Z,95380.53
2022-12-19T02:35:44.196Z,95387.28
2022-12-19T02:38:16.531Z,95369.06
2022-12-19T02:40:53.225Z,95375.91
2022-12-19T02:43:23.356Z,95365.63
2022-12-19T02:45:51.540Z,95377.31
2022-12-19T02:48:19.473Z,95373.09
2022-12-19T02:50:48.448Z,95371.09
2022-12-19T02:53:16.911Z,95372.38
2022-12-19T02:56:10.414Z,95368.53
2022-12-19T02:59:01.012Z,95373.00
2022-12-19T03:01:36.873Z,95375.63
2022-12-19T03:04:17.873Z,95364.16
2022-12-19T03:06:55.150Z,95372.81
2022-12-19T03:09:34.643Z,95368.06
2022-12-19T03:12:07.533Z,95374.94
2022-12-19T03:14:34.929Z,95364.41
2022-12-19T03:17:08.669Z,95374.50
2022-12-19T03:19:38.846Z,95378.34
2022-12-19T03:22:05.645Z,95369.66
2022-12-19T03:24:32.331Z,95358.38
2022-12-19T03:27:09.792Z,95373.44
2022-12-19T03:29:40.577Z,95378.81
2022-12-19T03:32:10.955Z,95383.34
2022-12-19T03:34:54.173Z,95376.91
2022-12-19T03:37:23.195Z,95371.69
2022-12-19T03:39:54.681Z,95374.28
2022-12-19T03:42:42.426Z,95373.72
2022-12-19T03:45:10.010Z,95371.50
2022-12-19T03:47:44.833Z,95375.75
2022-12-19T03:50:11.522Z,95370.34
2022-12-19T03:52:43.938Z,95373.97
2022-12-19T03:55:26.483Z,95376.44
2022-12-19T03:58:20.302Z,95364.69
2022-12-19T04:00:47.536Z,95356.19
2022-12-19T04:03:16.481Z,95354.72
2022-12-19T04:05:43.588Z,95347.50
2022-12-19T04:08:11.090Z,95348.03
2022-12-19T04:10:59.747Z,95348.66
2022-12-19T04:13:44.354Z,95351.19
2022-12-19T04:16:20.485Z,95357.81
2022-12-19T04:18:53.062Z,95351.22
2022-12-19T04:21:24.065Z,95355.09
2022-12-19T04:24:00.943Z,95359.44
2022-12-19T04:26:28.389Z,95346.56
2022-12-19T04:28:57.699Z,95350.81
2022-12-19T04:31:24.794Z,95356.88
2022-12-19T04:33:51.528Z,95348.13
2022-12-19T04:36:18.303Z,95349.91
2022-12-19T04:38:44.995Z,95341.63
2022-12-19T04:41:11.794Z,95337.03
2022-12-19T04:43:38.468Z,95350.13
2022-12-19T04:46:05.422Z,95350.66
2022-12-19T04:48:32.165Z,95350.47
2022-12-19T04:50:58.969Z,95345.00
2022-12-19T04:53:25.964Z,95357.34
2022-12-19T04:56:00.876Z,95354.56
2022-12-19T04:58:27.567Z,95357.47
2022-12-19T05:00:54.246Z,95352.66
2022-12-19T05:03:21.490Z,95372.31
2022-12-19T05:05:48.303Z,95367.75
2022-12-19T05:08:15.027Z,95363.94
2022-12-19T05:10:41.738Z,95373.78
2022-12-19T05:13:09.319Z,95361.31
2022-12-19T05:15:36.104Z,95364.41
2022-12-19T05:18:02.864Z,95363.75
2022-12-19T05:20:29.514Z,95363.75
2022-12-19T05:22:56.137Z,95371.69
2022-12-19T05:25:22.800Z,95362.84
2022-12-19T05:27:49.366Z,95340.78
2022-12-19T05:30:15.990Z,95380.56
2022-12-19T05:32:42.771Z,95372.06
2022-12-19T05:35:09.611Z,95378.75
2022-12-19T05:37:36.327Z,95360.22
2022-12-19T05:40:02.965Z,95361.50
2022-12-19T05:42:29.658Z,95361.16
2022-12-19T05:44:56.243Z,95359.25
2022-12-19T05:47:23.069Z,95344.63
2022-12-19T05:49:49.722Z,95336.16
2022-12-19T05:52:16.384Z,95352.75
2022-12-19T05:54:43.013Z,95341.09
2022-12-19T05:57:09.748Z,95333.81
2022-12-19T05:59:36.495Z,95333.34
2022-12-19T06:02:03.379Z,95335.53
2022-12-19T06:04:30.461Z,95339.38
2022-12-19T06:06:57.216Z,95343.38
2022-12-19T06:09:23.960Z,95349.25
2022-12-19T06:11:51.124Z,95363.09
2022-12-19T06:14:17.833Z,95368.22
2022-12-19T06:16:44.655Z,95370.94
2022-12-19T06:19:11.454Z,95373.72
2022-12-19T06:21:45.504Z,95361.06
2022-12-19T06:24:14.692Z,95378.53
2022-12-19T06:26:41.620Z,95375.72
2022-12-19T06:29:08.336Z,95382.78
2022-12-19T06:31:35.083Z,95377.72
2022-12-19T06:34:02.514Z,95385.28
2022-12-19T06:36:30.733Z,95371.03
2022-12-19T06:38:58.545Z,95372.00
2022-12-19T06:41:44.079Z,95386.53
2022-12-19T06:44:12.860Z,95383.84
2022-12-19T06:46:40.382Z,95390.34
2022-12-19T06:49:07.934Z,95387.91
2022-12-19T06:51:34.758Z,95380.88
2022-12-19T06:54:01.941Z,95380.59
2022-12-19T06:56:28.909Z,95386.09
2022-12-19T06:58:55.513Z,95384.09
2022-12-19T07:01:47.199Z,95399.81
2022-12-19T07:04:16.846Z,95374.53
2022-12-19T07:06:48.926Z,95398.03
2022-12-19T07:09:15.951Z,95393.94
2022-12-19T07:11:42.684Z,95404.47
2022-12-19T07:14:09.429Z,95410.75
2022-12-19T07:16:37.774Z,95413.50
2022-12-19T07:19:05.590Z,95417.56
2022-12-19T07:21:32.470Z,95412.84
2022-12-19T07:23:59.770Z,95407.88
2022-12-19T07:26:27.057Z,95406.63
2022-12-19T07:28:53.965Z,95401.09
2022-12-19T07:31:20.736Z,95410.31
2022-12-19T07:33:47.530Z,95417.09
2022-12-19T07:36:14.397Z,95406.97
2022-12-19T07:38:41.134Z,95424.69
2022-12-19T07:41:07.901Z,95423.78
2022-12-19T07:43:34.629Z,95420.25
2022-12-19T07:46:01.506Z,95417.47
2022-12-19T07:48:30.854Z,95428.84
2022-12-19T07:50:57.594Z,95425.56
2022-12-19T07:53:24.419Z,95415.72
2022-12-19T07:55:52.356Z,95419.75
2022-12-19T07:58:19.511Z,95419.25
2022-12-19T08:00:46.299Z,95436.66
2022-12-19T08:03:13.101Z,95435.84
2022-12-19T08:05:39.875Z,95447.22
2022-12-19T08:08:06.593Z,95428.06
2022-12-19T08:10:33.509Z,95435.63
2022-12-19T08:13:00.298Z,95431.06
2022-12-19T08:15:27.444Z,95436.88
2022-12-19T08:17:54.863Z,95441.22
2022-12-19T08:20:21.621Z,95448.63
2022-12-19T08:22:48.339Z,95442.66
2022-12-19T08:25:15.078Z,95447.94
2022-12-19T08:27:42.958Z,95451.38
2022-12-19T08:30:10.238Z,95458.63
2022-12-19T08:32:37.006Z,95463.41
2022-12-19T08:35:03.848Z,95469.88
2022-12-19T08:37:30.611Z,95471.72
2022-12-19T08:39:57.279Z,95463.78
2022-12-19T08:42:25.347Z,95475.88
2022-12-19T08:44:52.035Z,95475.56
2022-12-19T08:47:18.771Z,95478.66
2022-12-19T08:49:45.540Z,95471.06
2022-12-19T08:52:12.261Z,95473.84
2022-12-19T08:54:39.021Z,95474.63
2022-12-19T08:57:05.780Z,95476.16
2022-12-19T08:59:32.524Z,95472.19
2022-12-19T09:02:00.766Z,95477.59
2022-12-19T09:05:26.429Z,95467.09
2022-12-19T09:07:16.055Z,95470.41
2022-12-19T09:09:43.960Z,95468.69
2022-12-19T09:12:11.968Z,95463.03
2022-12-19T09:14:38.694Z,95463.13
2022-12-19T09:17:05.394Z,95454.59
2022-12-19T09:19:32.550Z,95459.09
2022-12-19T09:21:59.444Z,95458.56
2022-12-19T09:24:26.421Z,95464.38
2022-12-19T09:26:53.129Z,95458.06
2022-12-19T09:29:21.862Z,95452.31
2022-12-19T09:31:56.599Z,95456.91
2022-12-19T09:34:36.621Z,95455.47
2022-12-19T09:37:11.629Z,95444.16
2022-12-19T09:39:45.314Z,95440.91
2022-12-19T09:42:42.374Z,95437.97
2022-12-19T09:45:25.665Z,95435.41
2022-12-19T09:47:59.913Z,95418.97
2022-12-19T09:50:33.941Z,95420.53
2022-12-19T09:53:08.200Z,95404.22
2022-12-19T09:55:38.350Z,95401.13
2022-12-19T09:58:14.281Z,95396.13
2022-12-19T10:00:47.616Z,95380.72
2022-12-19T10:03:29.958Z,95394.50
2022-12-19T10:07:12.836Z,95383.81
2022-12-19T10:10:25.393Z,95381.88
2022-12-19T10:12:43.381Z,95379.78
2022-12-19T10:15:02.826Z,95373.56
2022-12-19T10:17:35.727Z,95366.66
2022-12-19T10:20:16.888Z,95354.09
2022-12-19T10:22:58.766Z,95364.50
2022-12-19T10:25:31.246Z,95370.69
2022-12-19T10:28:10.028Z,95368.50
2022-12-19T10:30:45.257Z,95368.63
2022-12-19T10:33:20.736Z,95363.66
2022-12-19T10:35:54.692Z,95365.56
2022-12-19T10:38:35.826Z,95368.78
2022-12-19T10:41:11.596Z,95368.13
2022-12-19T10:43:52.530Z,95369.03
2022-12-19T10:46:38.230Z,95356.88
2022-12-19T10:49:19.720Z,95352.56
2022-12-19T10:51:55.948Z,95349.34
2022-12-19T10:54:37.532Z,95342.09
2022-12-19T10:57:30.317Z,95346.22
2022-12-19T11:00:04.991Z,95344.06
2022-12-19T11:02:42.315Z,95340.56
2022-12-19T11:05:30.246Z,95326.22
2022-12-19T11:08:14.802Z,95326.19
2022-12-19T11:12:02.646Z,95325.56
2022-12-19T11:17:52.168Z,95327.31
2022-12-19T11:20:44.998Z,95306.34
2022-12-19T11:24:23.239Z,95310.41
2022-12-19T11:30:08.857Z,95315.34
2022-12-19T11:30:43.542Z,95308.88
2022-12-19T11:30:43.938Z,95304.97
2022-12-19T11:34:07.350Z,95295.41
2022-12-19T11:37:09.810Z,95289.75
2022-12-19T11:39:42.394Z,95281.13
2022-12-19T11:42:18.721Z,95288.22
2022-12-19T11:44:51.523Z,95280.44
2022-12-19T11:47:25.377Z,95280.59
2022-12-19T11:50:00.229Z,95280.19
2022-12-19T11:55:48.967Z,95256.47
2022-12-19T11:58:17.051Z,95274.38
2022-12-19T12:01:06.312Z,95269.81
2022-12-19T12:04:01.025Z,95265.50
2022-12-19T12:06:35.029Z,95252.31
2022-12-19T12:13:40.211Z,95256.06
2022-12-19T12:21:18.483Z,95253.09
2022-12-19T12:23:39.940Z,95253.38
2022-12-19T12:31:06.799Z,95259.16
2022-12-19T12:31:57.248Z,95261.47
2022-12-19T12:32:00.351Z,95251.91
2022-12-19T12:32:04.210Z,95252.44
2022-12-19T12:38:23.718Z,95235.72
2022-12-19T12:41:01.167Z,95238.09
2022-12-19T12:43:46.304Z,95243.75
2022-12-19T12:46:20.782Z,95238.16
2022-12-19T12:48:53.640Z,95223.25
2022-12-19T12:51:21.184Z,95241.94
2022-12-19T12:53:48.588Z,95237.97
2022-12-19T12:56:17.703Z,95235.69
2022-12-19T12:58:47.214Z,95239.59
2022-12-19T13:01:19.359Z,95239.06
2022-12-19T13:04:04.500Z,95238.34
2022-12-19T13:06:40.146Z,95228.53
2022-12-19T13:09:09.638Z,95229.06
2022-12-19T13:11:58.058Z,95228.50
2022-12-19T13:14:40.681Z,95236.63
2022-12-19T13:17:32.506Z,95212.75
2022-12-19T13:20:05.345Z,95229.16
2022-12-19T13:22:32.608Z,95236.03
2022-12-19T13:25:18.693Z,95238.91
2022-12-19T13:27:51.372Z,95240.16
2022-12-19T13:30:18.977Z,95241.78
2022-12-19T13:32:45.660Z,95239.75
2022-12-19T13:36:21.347Z,95236.13
2022-12-19T13:39:47.640Z,95234.78
2022-12-19T13:41:23.730Z,95224.00
2022-12-19T13:43:50.608Z,95236.13
2022-12-19T13:46:44.848Z,95241.25
2022-12-19T13:49:12.511Z,95247.44
2022-12-19T13:51:49.172Z,95252.28
2022-12-19T13:54:33.070Z,95243.13
2022-12-19T13:57:06.579Z,95228.47
2022-12-19T13:59:38.520Z,95244.75
2022-12-19T14:02:17.231Z,95240.16
2022-12-19T14:04:44.759Z,95245.72
2022-12-19T14:07:36.981Z,95238.16
2022-12-19T14:11:39.449Z,95224.28
2022-12-19T14:14:00.398Z,95239.66
2022-12-19T14:16:43.257Z,95230.34
2022-12-19T14:19:27.903Z,95233.31
2022-12-19T14:22:05.553Z,95224.66
2022-12-19T14:24:40.243Z,95220.50
2022-12-19T14:28:18.038Z,95231.81
2022-12-19T14:30:30.849Z,95224.00
2022-12-19T14:33:43.419Z,95233.53
2022-12-19T14:36:10.045Z,95226.56
2022-12-19T14:39:23.728Z,95241.47
2022-12-19T14:42:01.781Z,95236.41
2022-12-19T14:52:25.529Z,95215.88
2022-12-19T14:52:50.828Z,95232.34
2022-12-19T14:54:16.266Z,95222.59
2022-12-19T14:54:25.522Z,95227.19
2022-12-19T14:56:30.931Z,95226.25
2022-12-19T14:58:57.909Z,95226.25
2022-12-19T15:01:32.665Z,95219.91
2022-12-19T15:04:48.616Z,95223.28
2022-12-19T15:07:09.923Z,95218.28
2022-12-19T15:11:03.003Z,95222.59
2022-12-19T15:14:48.856Z,95220.91
2022-12-19T15:16:02.389Z,95170.47
2022-12-19T15:18:42.529Z,95232.44
2022-12-19T15:21:14.374Z,95224.53
2022-12-19T15:23:42.182Z,95221.03
2022-12-19T15:26:14.972Z,95221.53
2022-12-19T15:28:53.115Z,95220.47
2022-12-19T15:31:36.104Z,95222.06
2022-12-19T15:34:34.977Z,95211.25
2022-12-19T15:37:03.869Z,95208.97
2022-12-19T15:39:30.837Z,95210.03
2022-12-19T15:41:59.733Z,95208.19
2022-12-19T15:44:38.327Z,95183.47
2022-12-19T15:47:11.184Z,95193.00
2022-12-19T15:49:37.884Z,95190.69
2022-12-19T15:52:11.974Z,95177.16
2022-12-19T15:54:48.808Z,95190.03
2022-12-19T15:57:36.603Z,95192.81
2022-12-19T16:00:07.897Z,95193.97
2022-12-19T16:03:20.626Z,95187.94
2022-12-19T16:05:23.352Z,95189.91
2022-12-19T16:07:50.354Z,95183.06
2022-12-19T16:10:17.181Z,95189.47
2022-12-19T16:12:52.266Z,95192.69
2022-12-19T16:15:35.491Z,95189.66
2022-12-19T16:18:03.863Z,95180.41
2022-12-19T16:20:34.574Z,95182.00
2022-12-19T16:23:01.374Z,95169.94
2022-12-19T16:25:41.309Z,95180.88
2022-12-19T16:28:15.656Z,95170.25
2022-12-19T16:30:44.523Z,95161.09
2022-12-19T16:33:19.548Z,95158.31
2022-12-19T16:36:04.740Z,95160.25
2022-12-19T16:38:33.467Z,95155.13
2022-12-19T16:41:01.940Z,95150.53
2022-12-19T16:43:32.637Z,95140.16
2022-12-19T16:46:01.325Z,95138.66
2022-12-19T16:48:32.273Z,95145.88
2022-12-19T16:50:59.809Z,95145.91
2022-12-19T16:53:26.658Z,95146.66
2022-12-19T16:55:54.813Z,95142.28
2022-12-19T16:58:23.523Z,95144.41
2022-12-19T17:00:52.137Z,95149.22
2022-12-19T17:03:24.965Z,95163.63
2022-12-19T17:05:51.734Z,95159.06
2022-12-19T17:08:18.931Z,95162.19
2022-12-19T17:10:46.229Z,95159.50
2022-12-19T17:13:14.144Z,95153.50
2022-12-19T17:15:41.571Z,95145.84
2022-12-19T17:18:14.230Z,95154.47
2022-12-19T17:20:44.011Z,95152.13
2022-12-19T17:23:22.420Z,95143.44
2022-12-19T17:25:49.838Z,95151.88
2022-12-19T17:28:17.421Z,95141.81
2022-12-19T17:30:49.553Z,95147.59
2022-12-19T17:33:16.826Z,95142.50
2022-12-19T17:35:43.942Z,95157.31
2022-12-19T17:38:13.614Z,95150.59
2022-12-19T17:40:41.185Z,95144.34
2022-12-19T17:43:08.175Z,95155.69
2022-12-19T17:45:35.001Z,95147.34
2022-12-19T17:48:07.028Z,95157.38
2022-12-19T17:50:39.010Z,95152.56
2022-12-19T17:53:06.071Z,95147.34
2022-12-19T17:55:33.522Z,95156.16
2022-12-19T17:58:00.295Z,95152.44
2022-12-19T18:00:30.670Z,95148.00
2022-12-19T18:03:02.168Z,95158.59
2022-12-19T18:05:32.482Z,95161.00
2022-12-19T18:07:59.187Z,95155.00
2022-12-19T18:10:28.399Z,95149.78
2022-12-19T18:12:55.558Z,95146.84
2022-12-19T18:15:23.164Z,95149.75
2022-12-19T18:17:50.950Z,95150.34
2022-12-19T18:20:31.552Z,95153.44
2022-12-19T18:22:59.955Z,95151.25
2022-12-19T18:25:30.043Z,95146.31
2022-12-19T18:27:57.242Z,95143.31
2022-12-19T18:30:24.723Z,95139.00
2022-12-19T18:32:53.791Z,95137.53
2022-12-19T18:35:22.524Z,95145.88
2022-12-19T18:37:50.949Z,95141.94
2022-12-19T18:40:27.517Z,95144.50
2022-12-19T18:42:57.764Z,95144.25
2022-12-19T18:45:47.312Z,95150.16
2022-12-19T18:48:28.433Z,95141.47
2022-12-19T18:50:56.580Z,95138.47
2022-12-19T18:53:29.747Z,95139.28
2022-12-19T18:56:00.584Z,95136.03
2022-12-19T18:58:27.288Z,95132.22
2022-12-19T19:00:59.387Z,95149.00
2022-12-19T19:03:32.648Z,95151.78
2022-12-19T19:06:00.080Z,95155.84
2022-12-19T19:08:32.702Z,95141.84
2022-12-19T19:10:59.713Z,95145.31
2022-12-19T19:13:27.154Z,95156.88
2022-12-19T19:15:58.032Z,95151.81
2022-12-19T19:18:27.079Z,95148.09
2022-12-19T19:21:00.808Z,95148.91
2022-12-19T19:23:32.546Z,95155.16
2022-12-19T19:25:59.254Z,95147.53
2022-12-19T19:28:26.056Z,95143.13
2022-12-19T19:30:52.875Z,95142.44
2022-12-19T19:33:22.146Z,95134.00
2022-12-19T19:35:51.447Z,95109.25
2022-12-19T19:38:18.373Z,95127.75
2022-12-19T19:40:44.994Z,95130.63
2022-12-19T19:43:11.757Z,95110.03
2022-12-19T19:45:43.122Z,95134.34
2022-12-19T19:48:10.767Z,95122.53
2022-12-19T19:50:37.499Z,95126.47
2022-12-19T19:53:04.485Z,95122.31
2022-12-19T19:55:31.066Z,95121.13
2022-12-19T19:57:58.020Z,95105.19
2022-12-19T20:00:24.694Z,95127.28
2022-12-19T20:02:51.652Z,95124.63
2022-12-19T20:05:18.583Z,95120.34
2022-12-19T20:07:45.300Z,95115.38
2022-12-19T20:10:12.126Z,95113.94
2022-12-19T20:12:38.964Z,95118.91
2022-12-19T20:15:06.122Z,95117.78
2022-12-19T20:17:32.807Z,95114.63
2022-12-19T20:19:59.575Z,95113.75
2022-12-19T20:22:26.449Z,95109.47
2022-12-19T20:24:54.009Z,95109.47
2022-12-19T20:27:20.752Z,95107.97
2022-12-19T20:29:47.343Z,95105.19
2022-12-19T20:32:15.152Z,95106.69
2022-12-19T20:34:42.054Z,95107.50
2022-12-19T20:37:08.708Z,95098.25
2022-12-19T20:39:35.307Z,95094.69
2022-12-19T20:42:01.935Z,95102.09
2022-12-19T20:44:29.745Z,95097.69
2022-12-19T20:46:56.437Z,95094.56
2022-12-19T20:49:23.645Z,95093.19
2022-12-19T20:51:50.284Z,95089.72
2022-12-19T20:54:16.917Z,95091.44
2022-12-19T20:56:43.895Z,95096.66
2022-12-19T20:59:10.560Z,95088.78
2022-12-19T21:01:37.972Z,95088.09
2022-12-19T21:04:05.352Z,95088.31
2022-12-19T21:06:32.318Z,95094.91
2022-12-19T21:08:59.043Z,95083.25
2022-12-19T21:11:26.610Z,95086.59
2022-12-19T21:13:53.621Z,95080.38
2022-12-19T21:16:21.822Z,95087.50
2022-12-19T21:18:49.452Z,95081.19
2022-12-19T21:21:19.055Z,95083.72
2022-12-19T21:23:46.310Z,95087.19
2022-12-19T21:26:13.340Z,95090.53
2022-12-19T21:28:40.268Z,95083.59
2022-12-19T21:31:14.170Z,95093.31
2022-12-19T21:33:41.107Z,95090.63
2022-12-19T21:36:09.453Z,95086.81
2022-12-19T21:38:37.016Z,95088.66
2022-12-19T21:41:05.858Z,95080.81
2022-12-19T21:43:33.478Z,95074.34
2022-12-19T21:46:10.635Z,95081.38
2022-12-19T21:48:47.680Z,95080.81
2022-12-19T21:51:15.985Z,95089.34
2022-12-19T21:53:43.096Z,95085.56
2022-12-19T21:56:36.691Z,95085.66
2022-12-19T21:59:06.134Z,95078.81
2022-12-19T22:01:33.617Z,95073.19
2022-12-19T22:04:02.740Z,95073.03
2022-12-19T22:06:31.900Z,95063.34
2022-12-19T22:09:00.367Z,95073.06
2022-12-19T22:11:28.170Z,95069.13
2022-12-19T22:13:55.191Z,95065.41
2022-12-19T22:16:22.079Z,95058.59
2022-12-19T22:18:51.263Z,95063.56
2022-12-19T22:21:17.922Z,95066.44
2022-12-19T22:23:44.821Z,95057.09
2022-12-19T22:26:16.798Z,95053.19
2022-12-19T22:28:45.944Z,95054.56
2022-12-19T22:31:25.228Z,95040.84
2022-12-19T22:33:55.308Z,95044.19
2022-12-19T22:36:28.006Z,95018.53
2022-12-19T22:38:56.074Z,95039.34
2022-12-19T22:41:22.707Z,95036.75
2022-12-19T22:43:49.550Z,95032.81
2022-12-19T22:46:19.063Z,95022.31
2022-12-19T22:48:47.013Z,95019.19
2022-12-19T22:51:14.951Z,95007.41
2022-12-19T22:53:42.305Z,95011.91
2022-12-19T22:56:12.897Z,95009.75
2022-12-19T22:58:41.452Z,95003.75
2022-12-19T23:01:16.649Z,95006.72
2022-12-19T23:03:44.909Z,95003.47
2022-12-19T23:06:13.571Z,95004.88
2022-12-19T23:08:40.443Z,95002.00
2022-12-19T23:11:11.373Z,94993.59
2022-12-19T23:13:39.275Z,94990.56
2022-12-19T23:16:06.429Z,94994.03
2022-12-19T23:18:33.238Z,94987.44
2022-12-19T23:21:02.921Z,94984.34
2022-12-19T23:23:35.015Z,94994.03
2022-12-19T23:26:02.279Z,94982.25
2022-12-19T23:28:28.880Z,94981.75
2022-12-19T23:31:10.246Z,94982.78
2022-12-19T23:33:37.070Z,94990.63
2022-12-19T23:36:04.811Z,94990.53
2022-12-19T23:38:31.618Z,94998.72
2022-12-19T23:41:06.480Z,94997.91
2022-12-19T23:43:34.504Z,94988.25
2022-12-19T23:46:06.171Z,94989.59
2022-12-19T23:48:32.816Z,94971.28
2022-12-19T23:51:05.096Z,94985.44
2022-12-19T23:53:32.491Z,94989.81
2022-12-19T23:55:59.423Z,94982.00
2022-12-19T23:58:26.074Z,94984.53
